Time;durP1;ratioP1;P1;durP2;ratioP2;P2;SDS_P1;SDS_P2;PMS_P1;PMS_P2;Temp;Humidity;BMP_temperature;BMP_pressure;BME280_temperature;BME280_humidity;BME280_pressure;Samples;Min_cycle;Max_cycle;Signal;HPM_P1;HPM_P2
2023/06/11 00:01:54;;;;;;;;;6.50;6.50;;;;;13.79;100.00;98508.84;4871250;28;101448;-72
2023/06/11 00:04:30;;;;;;;;;5.50;5.50;;;;;13.71;100.00;98509.16;4865548;28;101638;-71
2023/06/11 00:07:23;;;;;;;;;6.75;6.75;;;;;13.65;100.00;98501.88;4874327;28;102494;-72
2023/06/11 00:10:11;;;;;;;;;9.75;8.50;;;;;13.50;100.00;98496.81;4869667;28;101662;-71
2023/06/11 00:13:01;;;;;;;;;8.50;8.25;;;;;13.51;100.00;98503.06;4870078;28;101500;-72
2023/06/11 00:15:37;;;;;;;;;7.50;7.00;;;;;13.54;100.00;98505.34;4871660;28;101600;-71
2023/06/11 00:18:05;;;;;;;;;6.75;6.00;;;;;13.29;100.00;98467.28;4874947;28;103520;-71
2023/06/11 00:20:32;;;;;;;;;6.00;5.25;;;;;13.55;100.00;98507.00;4875992;28;101248;-72
2023/06/11 00:22:59;;;;;;;;;5.00;5.00;;;;;13.56;100.00;98508.66;4876802;28;101970;-72
2023/06/11 00:25:26;;;;;;;;;4.00;4.00;;;;;13.57;100.00;98511.16;4879706;28;101848;-72
2023/06/11 00:27:53;;;;;;;;;2.25;2.00;;;;;13.54;100.00;98511.59;4881108;28;103415;-71
2023/06/11 00:30:20;;;;;;;;;6.75;6.00;;;;;13.49;100.00;98502.44;4873878;28;101399;-72
2023/06/11 00:32:47;;;;;;;;;5.50;5.00;;;;;13.48;100.00;98506.22;4875599;28;101733;-72
2023/06/11 00:35:14;;;;;;;;;5.25;5.25;;;;;13.48;100.00;98503.50;4873363;28;101902;-72
2023/06/11 00:37:42;;;;;;;;;6.00;6.00;;;;;13.38;100.00;98484.97;4879134;28;103354;-72
2023/06/11 00:40:09;;;;;;;;;5.00;5.00;;;;;13.48;100.00;98500.78;4871311;28;101601;-72
2023/06/11 00:42:36;;;;;;;;;6.50;6.00;;;;;13.42;100.00;98498.97;4875670;28;101649;-72
2023/06/11 00:45:05;;;;;;;;;8.50;8.00;;;;;13.37;100.00;98505.88;4865266;28;103520;-72
2023/06/11 00:47:35;;;;;;;;;7.50;7.50;;;;;13.42;100.00;98502.50;4871188;28;103590;-71
2023/06/11 00:50:04;;;;;;;;;7.50;6.50;;;;;13.35;100.00;98508.00;4867919;28;101608;-72
2023/06/11 00:52:31;;;;;;;;;5.25;5.25;;;;;13.36;100.00;98511.53;4879061;28;101606;-72
2023/06/11 00:54:59;;;;;;;;;5.50;5.00;;;;;13.37;100.00;98510.50;4872359;28;101560;-72
2023/06/11 00:57:26;;;;;;;;;6.00;4.50;;;;;13.32;100.00;98503.00;4875223;28;103637;-72
2023/06/11 00:59:55;;;;;;;;;9.75;7.75;;;;;13.25;100.00;98513.06;4878340;28;101391;-72
2023/06/11 01:02:49;;;;;;;;;6.50;5.25;;;;;13.27;100.00;98512.88;4871842;28;101600;-72
2023/06/11 01:05:31;;;;;;;;;7.00;7.00;;;;;13.23;100.00;98508.94;4872903;28;101893;-73
2023/06/11 01:08:22;;;;;;;;;9.00;8.00;;;;;13.24;100.00;98513.28;4860448;28;103866;-73
2023/06/11 01:11:29;;;;;;;;;8.00;7.00;;;;;13.23;100.00;98515.19;4870532;28;101779;-72
2023/06/11 01:14:23;;;;;;;;;5.75;5.00;;;;;13.24;100.00;98521.44;4865788;28;102376;-72
2023/06/11 01:17:25;;;;;;;;;5.75;4.50;;;;;13.21;100.00;98514.56;4877605;28;101941;-72
2023/06/11 01:20:08;;;;;;;;;8.50;6.00;;;;;13.22;100.00;98523.56;4876028;28;106864;-72
2023/06/11 01:22:41;;;;;;;;;4.25;4.25;;;;;13.21;100.00;98525.44;4875779;28;101544;-72
2023/06/11 01:25:30;;;;;;;;;6.00;6.00;;;;;13.20;100.00;98526.47;4872326;28;101844;-71
2023/06/11 01:28:03;;;;;;;;;6.75;6.75;;;;;13.01;100.00;98515.72;4871843;28;101914;-71
2023/06/11 01:30:33;;;;;;;;;7.50;7.50;;;;;13.09;100.00;98535.31;4872692;28;103332;-72
2023/06/11 01:33:02;;;;;;;;;4.75;4.75;;;;;13.11;100.00;98527.78;4872168;28;101634;-71
2023/06/11 01:35:30;;;;;;;;;5.75;5.75;;;;;13.13;100.00;98527.56;4871333;28;101456;-72
2023/06/11 01:37:58;;;;;;;;;14.00;13.00;;;;;13.02;100.00;98531.78;4873041;28;101567;-72
2023/06/11 01:40:26;;;;;;;;;7.25;6.25;;;;;13.10;100.00;98526.13;4876439;28;103575;-72
2023/06/11 01:42:55;;;;;;;;;7.25;7.25;;;;;13.12;100.00;98529.47;4872029;28;102193;-72
2023/06/11 01:45:24;;;;;;;;;9.50;9.50;;;;;13.12;100.00;98528.63;4870932;28;102162;-71
2023/06/11 01:47:52;;;;;;;;;8.00;7.25;;;;;13.06;100.00;98519.44;4878753;28;101610;-72
2023/06/11 01:50:20;;;;;;;;;8.00;7.00;;;;;13.07;100.00;98517.56;4875194;28;103501;-72
2023/06/11 01:52:47;;;;;;;;;6.75;6.00;;;;;13.05;100.00;98517.78;4881033;28;102299;-72
2023/06/11 01:55:15;;;;;;;;;8.00;8.00;;;;;13.07;100.00;98520.28;4878731;28;101844;-72
2023/06/11 01:57:43;;;;;;;;;8.50;7.25;;;;;13.05;100.00;98523.22;4876926;28;101637;-72
2023/06/11 02:00:11;;;;;;;;;8.75;7.00;;;;;13.07;100.00;98520.28;4875201;28;103335;-72
2023/06/11 02:02:43;;;;;;;;;7.00;7.00;;;;;13.01;100.00;98522.00;4873816;28;101871;-72
2023/06/11 02:05:10;;;;;;;;;9.75;9.25;;;;;12.94;100.00;98521.19;4884754;28;101448;-72
2023/06/11 02:07:38;;;;;;;;;8.75;7.00;;;;;12.95;100.00;98520.97;4877163;28;102072;-72
2023/06/11 02:10:05;;;;;;;;;9.00;8.25;;;;;12.94;100.00;98518.47;4877156;28;103350;-72
2023/06/11 02:12:32;;;;;;;;;5.00;4.75;;;;;12.95;100.00;98523.69;4876540;28;101821;-72
2023/06/11 02:14:59;;;;;;;;;6.50;4.50;;;;;12.96;100.00;98524.53;4875271;28;101494;-73
2023/06/11 02:17:26;;;;;;;;;6.00;5.00;;;;;12.94;100.00;98526.63;4860875;28;105570;-72
2023/06/11 02:19:53;;;;;;;;;5.00;5.00;;;;;12.92;100.00;98526.81;4866802;28;103386;-72
2023/06/11 02:22:20;;;;;;;;;4.00;4.00;;;;;12.96;100.00;98535.38;4878704;28;101856;-72
2023/06/11 02:24:47;;;;;;;;;6.25;5.75;;;;;12.97;100.00;98532.44;4879089;28;101530;-72
2023/06/11 02:27:14;;;;;;;;;4.50;3.75;;;;;12.99;100.00;98534.94;4878611;28;101679;-72
2023/06/11 02:29:41;;;;;;;;;1.75;1.25;;;;;13.00;100.00;98524.91;4865329;28;108728;-71
2023/06/11 02:32:10;;;;;;;;;4.00;4.00;;;;;12.99;100.00;98524.09;4877903;28;101741;-72
2023/06/11 02:34:37;;;;;;;;;5.75;5.75;;;;;12.94;100.00;98526.63;4876139;28;101527;-71
2023/06/11 02:37:04;;;;;;;;;12.00;11.00;;;;;12.80;100.00;98527.75;4873134;28;102019;-72
2023/06/11 02:39:31;;;;;;;;;9.00;8.75;;;;;12.70;100.00;98530.09;4870523;28;103386;-72
2023/06/11 02:41:58;;;;;;;;;9.50;8.75;;;;;12.86;100.00;98537.72;4873250;28;102076;-72
2023/06/11 02:44:26;;;;;;;;;5.25;3.50;;;;;12.91;100.00;98540.63;4873146;28;101834;-72
2023/06/11 02:46:53;;;;;;;;;13.25;7.75;;;;;12.86;100.00;98540.44;4874128;28;101522;-71
2023/06/11 02:49:20;;;;;;;;;16.75;14.25;;;;;12.82;100.00;98539.22;4872638;28;103386;-72
2023/06/11 02:51:47;;;;;;;;;16.00;14.75;;;;;12.87;100.00;98539.41;4873037;28;101587;-72
2023/06/11 02:54:15;;;;;;;;;9.75;9.75;;;;;12.90;100.00;98536.25;4878914;28;101918;-72
2023/06/11 02:56:41;;;;;;;;;11.50;10.25;;;;;12.92;100.00;98553.16;4870443;28;101501;-71
2023/06/11 02:59:08;;;;;;;;;9.25;8.50;;;;;12.91;100.00;98537.91;4874600;28;103340;-71
2023/06/11 03:01:38;;;;;;;;;9.75;9.25;;;;;12.94;100.00;98537.47;4865059;28;101698;-71
2023/06/11 03:04:05;;;;;;;;;13.75;12.25;;;;;13.00;100.00;98546.63;4867806;28;101595;-72
2023/06/11 03:06:33;;;;;;;;;16.75;16.50;;;;;13.01;100.00;98530.16;4877246;28;101510;-71
2023/06/11 03:09:00;;;;;;;;;15.00;14.25;;;;;13.10;100.00;98536.97;4871480;28;103445;-71
2023/06/11 03:11:27;;;;;;;;;15.00;13.00;;;;;13.19;100.00;98540.28;4871465;28;101930;-71
2023/06/11 03:13:54;;;;;;;;;15.75;14.75;;;;;13.24;100.00;98535.00;4873595;28;101818;-71
2023/06/11 03:16:21;;;;;;;;;16.25;16.25;;;;;13.34;100.00;98538.91;4879979;28;101690;-71
2023/06/11 03:18:49;;;;;;;;;16.00;14.25;;;;;13.42;100.00;98545.13;4878179;28;103543;-71
2023/06/11 03:21:16;;;;;;;;;12.00;12.00;;;;;13.49;100.00;98546.75;4877255;28;101596;-71
2023/06/11 03:23:43;;;;;;;;;9.50;8.50;;;;;13.56;100.00;98546.69;4869479;28;102641;-71
2023/06/11 03:26:10;;;;;;;;;10.25;9.50;;;;;13.58;100.00;98539.16;4873577;28;101591;-71
2023/06/11 03:28:37;;;;;;;;;15.50;15.50;;;;;13.66;100.00;98555.16;4878579;28;103308;-71
2023/06/11 03:31:04;;;;;;;;;14.00;14.00;;;;;13.60;100.00;98540.56;4875712;28;101565;-71
2023/06/11 03:33:31;;;;;;;;;19.00;18.75;;;;;13.77;100.00;98554.47;4875057;28;101408;-71
2023/06/11 03:35:58;;;;;;;;;17.75;16.50;;;;;13.83;100.00;98564.41;4868241;28;101575;-72
2023/06/11 03:38:25;;;;;;;;;19.50;17.25;;;;;13.85;100.00;98562.31;4875838;28;103635;-71
2023/06/11 03:40:52;;;;;;;;;20.50;18.00;;;;;13.93;100.00;98567.47;4877008;28;101653;-70
2023/06/11 03:43:19;;;;;;;;;19.75;18.00;;;;;13.95;100.00;98565.38;4876630;28;101925;-71
2023/06/11 03:45:46;;;;;;;;;21.00;20.25;;;;;14.00;100.00;98568.25;4878239;28;101539;-71
2023/06/11 03:48:13;;;;;;;;;17.00;15.50;;;;;14.11;100.00;98572.94;4875214;28;103389;-71
2023/06/11 03:50:40;;;;;;;;;14.75;14.00;;;;;14.15;100.00;98576.88;4869081;28;102905;-71
2023/06/11 03:53:07;;;;;;;;;19.75;18.00;;;;;14.21;100.00;98584.16;4874078;28;101808;-71
2023/06/11 03:55:34;;;;;;;;;14.00;14.00;;;;;14.25;100.00;98596.25;4875758;28;103189;-71
2023/06/11 03:58:01;;;;;;;;;15.50;14.00;;;;;14.31;100.00;98586.34;4873972;28;103369;-71
2023/06/11 04:00:31;;;;;;;;;12.75;11.25;;;;;14.35;100.00;98584.84;4876578;28;101494;-71
2023/06/11 04:02:59;;;;;;;;;16.25;15.00;;;;;14.41;100.00;98578.50;4875257;28;101829;-71
2023/06/11 04:05:26;;;;;;;;;17.00;15.25;;;;;14.43;100.00;98581.00;4864747;28;101643;-71
2023/06/11 04:07:53;;;;;;;;;18.00;17.25;;;;;14.39;100.00;98583.38;4869439;28;103405;-71
2023/06/11 04:10:22;;;;;;;;;21.75;21.75;;;;;14.39;100.00;98574.38;4874567;28;101812;-71
2023/06/11 04:12:49;;;;;;;;;14.75;14.50;;;;;14.49;100.00;98588.28;4871881;28;101509;-72
2023/06/11 04:15:16;;;;;;;;;14.50;14.25;;;;;14.57;100.00;98582.53;4691511;28;5001681;-71
2023/06/11 04:17:43;;;;;;;;;11.25;10.50;;;;;14.68;100.00;98585.31;4876532;28;103407;-71
2023/06/11 04:20:11;;;;;;;;;11.00;11.00;;;;;14.67;100.00;98589.13;4867446;28;102106;-71
2023/06/11 04:22:38;;;;;;;;;15.00;13.75;;;;;14.68;100.00;98596.19;4870975;28;101625;-71
2023/06/11 04:25:06;;;;;;;;;11.75;11.25;;;;;14.77;100.00;98588.56;4871207;28;101686;-72
2023/06/11 04:27:36;;;;;;;;;9.00;9.00;;;;;14.81;100.00;98591.69;4874185;28;103645;-71
2023/06/11 04:30:04;;;;;;;;;9.25;9.00;;;;;14.87;100.00;98593.47;4873015;28;101881;-72
2023/06/11 04:32:34;;;;;;;;;21.25;20.25;;;;;14.89;100.00;98594.91;4876512;28;101523;-71
2023/06/11 04:35:02;;;;;;;;;13.00;11.75;;;;;15.03;100.00;98599.13;4881794;28;101645;-71
2023/06/11 04:37:38;;;;;;;;;13.00;12.50;;;;;15.13;100.00;98582.22;4880358;28;103329;-71
2023/06/11 04:40:10;;;;;;;;;15.25;14.50;;;;;15.13;100.00;98583.06;4875016;28;102135;-71
2023/06/11 04:42:40;;;;;;;;;17.50;17.50;;;;;15.23;100.00;98592.56;4879357;28;101974;-71
2023/06/11 04:45:09;;;;;;;;;14.50;14.50;;;;;15.29;100.00;98584.31;4878843;28;101654;-71
2023/06/11 04:47:37;;;;;;;;;14.75;14.75;;;;;15.29;100.00;98583.47;4875076;28;104032;-71
2023/06/11 04:50:05;;;;;;;;;14.50;12.25;;;;;15.33;100.00;98590.13;4872665;28;101825;-71
2023/06/11 04:52:35;;;;;;;;;14.00;12.50;;;;;15.30;100.00;98580.53;4874717;28;101536;-71
2023/06/11 04:55:03;;;;;;;;;20.25;19.75;;;;;15.44;100.00;98589.34;4880302;28;101982;-71
2023/06/11 04:57:33;;;;;;;;;20.00;17.00;;;;;15.53;100.00;98593.44;4875082;28;103375;-71
2023/06/11 05:00:02;;;;;;;;;12.75;12.00;;;;;15.67;100.00;98599.50;4872859;28;101826;-71
2023/06/11 05:02:29;;;;;;;;;19.75;19.00;;;;;15.59;100.00;98598.75;4877730;28;101716;-71
2023/06/11 05:04:57;;;;;;;;;18.00;17.00;;;;;15.57;100.00;98594.63;4875981;28;101664;-71
2023/06/11 05:07:24;;;;;;;;;16.50;15.25;;;;;15.37;100.00;98555.91;4872567;28;103568;-72
2023/06/11 05:09:51;;;;;;;;;19.75;17.25;;;;;15.60;100.00;98596.88;4879667;28;101642;-72
2023/06/11 05:12:18;;;;;;;;;17.75;17.75;;;;;15.68;100.00;98606.59;4873827;28;101648;-71
2023/06/11 05:14:45;;;;;;;;;16.50;14.75;;;;;15.72;100.00;98613.25;4875779;28;101829;-72
2023/06/11 05:17:12;;;;;;;;;13.50;13.50;;;;;15.72;100.00;98613.25;4876072;28;103339;-71
2023/06/11 05:19:39;;;;;;;;;20.00;19.75;;;;;15.56;100.00;98612.03;4878731;28;101357;-71
2023/06/11 05:22:06;;;;;;;;;16.50;15.00;;;;;15.74;100.00;98617.41;4873886;28;101628;-71
2023/06/11 05:24:33;;;;;;;;;16.00;15.50;;;;;15.83;100.00;98617.91;4876479;28;101529;-71
2023/06/11 05:27:01;;;;;;;;;14.50;13.25;;;;;15.89;100.00;98612.34;4885241;28;103346;-72
2023/06/11 05:29:28;;;;;;;;;14.50;14.00;;;;;15.94;99.80;98606.19;4876362;28;102413;-72
2023/06/11 05:31:56;;;;;;;;;15.00;15.00;;;;;15.96;100.00;98613.06;4863848;28;101605;-72
2023/06/11 05:34:25;;;;;;;;;17.75;16.50;;;;;15.93;99.46;98604.53;4878521;28;101662;-71
2023/06/11 05:36:53;;;;;;;;;15.25;14.25;;;;;15.94;98.76;98607.00;4872292;28;103244;-72
2023/06/11 05:39:20;;;;;;;;;18.25;15.50;;;;;16.08;99.00;98611.19;4873656;28;101596;-72
2023/06/11 05:41:47;;;;;;;;;18.75;17.00;;;;;16.21;98.74;98612.03;4876984;28;101471;-71
2023/06/11 05:44:16;;;;;;;;;23.25;20.50;;;;;16.30;97.51;98616.88;4880088;28;101556;-71
2023/06/11 05:46:43;;;;;;;;;14.00;13.00;;;;;16.69;97.12;98619.97;4862728;28;103535;-71
2023/06/11 05:49:10;;;;;;;;;19.50;18.50;;;;;16.59;97.02;98614.28;4877071;28;102023;-71
2023/06/11 05:51:37;;;;;;;;;20.75;18.25;;;;;16.68;95.78;98618.31;4873761;28;101937;-71
2023/06/11 05:54:04;;;;;;;;;20.25;18.00;;;;;16.44;94.45;98573.78;4877330;28;102013;-71
2023/06/11 05:56:31;;;;;;;;;16.25;16.00;;;;;16.66;94.45;98626.72;4878986;28;104205;-71
2023/06/11 05:58:58;;;;;;;;;14.25;13.75;;;;;16.71;95.92;98634.19;4878414;28;101734;-72
2023/06/11 06:01:25;;;;;;;;;13.00;13.00;;;;;16.92;96.57;98630.84;4864079;28;102121;-72
2023/06/11 06:03:52;;;;;;;;;18.75;17.50;;;;;17.03;93.06;98649.09;4865562;28;101927;-71
2023/06/11 06:06:19;;;;;;;;;18.50;17.00;;;;;16.99;93.21;98642.47;4868880;28;103523;-72
2023/06/11 06:08:46;;;;;;;;;17.00;16.50;;;;;16.88;91.71;98640.63;4870569;28;101634;-72
2023/06/11 06:11:13;;;;;;;;;17.00;17.00;;;;;17.05;91.66;98648.88;4861246;28;101754;-73
2023/06/11 06:13:40;;;;;;;;;15.00;15.00;;;;;17.26;93.09;98642.75;4859236;28;101961;-73
2023/06/11 06:16:08;;;;;;;;;15.25;14.50;;;;;17.62;89.88;98636.94;4846659;28;103327;-72
2023/06/11 06:18:36;;;;;;;;;18.25;18.25;;;;;17.94;86.51;98636.38;4861204;28;101527;-72
2023/06/11 06:21:03;;;;;;;;;17.75;17.75;;;;;18.34;84.53;98625.28;4873826;28;102999;-72
2023/06/11 06:23:30;;;;;;;;;16.75;16.00;;;;;18.79;83.69;98625.97;4881009;28;101973;-73
2023/06/11 06:25:58;;;;;;;;;16.25;16.25;;;;;18.86;80.74;98632.13;4879879;28;103300;-73
2023/06/11 06:28:25;;;;;;;;;15.25;15.00;;;;;19.06;81.35;98642.50;4873362;28;101845;-73
2023/06/11 06:30:52;;;;;;;;;21.67;18.33;;;;;18.97;82.23;98639.38;4876958;28;101522;-73
2023/06/11 06:33:19;;;;;;;;;17.67;15.67;;;;;19.01;79.52;98640.50;4880381;28;101877;-73
2023/06/11 06:35:46;;;;;;;;;14.33;14.33;;;;;19.18;80.17;98643.22;4876325;28;107972;-73
2023/06/11 06:38:13;;;;;;;;;14.00;13.33;;;;;19.28;81.00;98639.75;4876442;28;101914;-73
2023/06/11 06:40:40;;;;;;;;;16.00;16.00;;;;;19.40;77.87;98649.50;4870242;28;101638;-73
2023/06/11 06:43:07;;;;;;;;;16.00;15.33;;;;;19.60;78.97;98647.00;4877416;28;101502;-72
2023/06/11 06:45:34;;;;;;;;;17.67;16.67;;;;;19.53;77.16;98649.16;4870583;28;103382;-71
2023/06/11 06:48:01;;;;;;;;;12.67;12.67;;;;;19.75;81.01;98640.88;4879262;28;101634;-72
2023/06/11 06:50:29;;;;;;;;;13.67;12.67;;;;;20.16;81.03;98643.97;4875910;28;102188;-71
2023/06/11 06:52:55;;;;;;;;;14.67;14.33;;;;;20.38;74.97;98645.56;4870340;28;101531;-71
2023/06/11 06:55:22;;;;;;;;;12.67;11.67;;;;;20.48;75.02;98636.59;4871977;28;103368;-71
2023/06/11 06:57:50;;;;;;;;;15.00;14.33;;;;;20.26;75.28;98642.13;4875709;28;101469;-71
2023/06/11 07:00:17;;;;;;;;;14.33;13.33;;;;;20.81;73.90;98643.63;4874011;28;101866;-72
2023/06/11 07:02:45;;;;;;;;;14.00;13.67;;;;;20.72;72.94;98647.97;4867837;28;101878;-71
2023/06/11 07:05:12;;;;;;;;;16.00;16.00;;;;;19.76;74.91;98649.94;4875699;28;103518;-72
2023/06/11 07:07:40;;;;;;;;;12.33;10.67;;;;;19.45;79.67;98652.31;4878001;28;101749;-72
2023/06/11 07:10:09;;;;;;;;;16.00;15.00;;;;;19.42;77.00;98658.28;4873893;28;101708;-71
2023/06/11 07:12:37;;;;;;;;;11.33;11.33;;;;;19.62;76.64;98648.69;4878374;28;102523;-73
2023/06/11 07:15:04;;;;;;;;;13.00;13.00;;;;;19.64;75.37;98641.00;4869024;28;103371;-71
2023/06/11 07:17:32;;;;;;;;;13.00;13.00;;;;;19.76;77.82;98653.50;4876316;28;101685;-71
2023/06/11 07:19:59;;;;;;;;;14.00;13.50;;;;;19.81;74.83;98656.28;4876049;28;101580;-72
2023/06/11 07:22:26;;;;;;;;;15.00;15.00;;;;;20.07;75.29;98648.28;4876624;28;101860;-72
2023/06/11 07:24:53;;;;;;;;;12.00;12.00;;;;;20.37;74.68;98648.56;4880564;28;104369;-71
2023/06/11 07:27:20;;;;;;;;;12.00;9.33;;;;;20.86;72.87;98646.41;4876298;28;101380;-71
2023/06/11 07:29:47;;;;;;;;;16.00;13.00;;;;;20.34;76.11;98644.44;4875854;28;101848;-71
2023/06/11 07:32:14;;;;;;;;;13.33;13.33;;;;;20.51;74.09;98649.78;4869995;28;102045;-71
2023/06/11 07:34:42;;;;;;;;;11.00;11.00;;;;;20.64;75.49;98653.97;4868615;28;104534;-71
2023/06/11 07:37:09;;;;;;;;;13.00;12.00;;;;;20.64;72.60;98634.75;4873225;28;101942;-72
2023/06/11 07:39:36;;;;;;;;;15.33;14.00;;;;;20.80;71.26;98664.78;4875887;28;102071;-70
2023/06/11 07:42:05;;;;;;;;;15.00;14.33;;;;;20.84;71.67;98651.38;4880206;28;101950;-71
2023/06/11 07:44:32;;;;;;;;;11.33;10.67;;;;;21.09;72.06;98654.25;4869072;28;103375;-70
2023/06/11 07:46:59;;;;;;;;;15.00;14.67;;;;;20.59;72.83;98645.69;4863308;28;101861;-70
2023/06/11 07:49:26;;;;;;;;;16.00;14.00;;;;;20.40;74.04;98653.53;4859389;28;101607;-70
2023/06/11 07:51:53;;;;;;;;;14.67;12.00;;;;;20.40;74.20;98653.53;4875742;28;101534;-73
2023/06/11 07:54:20;;;;;;;;;11.33;11.33;;;;;20.32;73.99;98657.59;4874044;28;103371;-71
2023/06/11 07:56:47;;;;;;;;;8.67;8.67;;;;;20.70;74.26;98647.44;4874857;28;102142;-71
2023/06/11 07:59:15;;;;;;;;;9.33;9.33;;;;;21.12;71.33;98656.44;4875830;28;101802;-71
2023/06/11 08:01:42;;;;;;;;;15.33;14.00;;;;;21.10;69.68;98653.16;4879632;28;101474;-70
2023/06/11 08:04:09;;;;;;;;;14.67;13.67;;;;;20.96;70.68;98651.16;4871909;28;103538;-71
2023/06/11 08:06:36;;;;;;;;;14.00;13.00;;;;;20.96;69.46;98660.22;4877233;28;101534;-71
2023/06/11 08:09:03;;;;;;;;;16.00;14.67;;;;;20.74;67.36;98665.03;4871023;28;101602;-70
2023/06/11 08:11:30;;;;;;;;;11.00;10.00;;;;;20.92;69.65;98654.44;4881757;28;101588;-71
2023/06/11 08:13:57;;;;;;;;;11.00;11.00;;;;;21.16;69.18;98663.13;4877707;28;103347;-71
2023/06/11 08:16:24;;;;;;;;;12.00;12.00;;;;;21.17;70.42;98666.69;4875748;28;101601;-72
2023/06/11 08:18:51;;;;;;;;;12.33;11.67;;;;;21.11;68.38;98663.06;4882320;28;101564;-72
2023/06/11 08:21:18;;;;;;;;;11.33;11.33;;;;;20.97;68.68;98670.13;4884252;28;101609;-72
2023/06/11 08:23:45;;;;;;;;;13.00;12.33;;;;;20.75;68.22;98669.47;4880132;28;103328;-70
2023/06/11 08:26:12;;;;;;;;;12.67;12.00;;;;;20.49;69.88;98658.28;4880073;28;102179;-71
2023/06/11 08:28:39;;;;;;;;;11.67;11.00;;;;;20.00;69.55;98641.09;4879377;28;101566;-72
2023/06/11 08:31:06;;;;;;;;;11.00;9.33;;;;;20.55;71.55;98652.81;4867544;28;101694;-73
2023/06/11 08:33:33;;;;;;;;;10.00;9.67;;;;;20.61;70.74;98638.03;4872100;28;102343;-73
2023/06/11 08:36:01;;;;;;;;;12.67;12.33;;;;;20.28;69.92;98658.34;4871827;28;101609;-72
2023/06/11 08:38:28;;;;;;;;;12.00;12.00;;;;;20.56;69.41;98651.72;4871685;28;102034;-73
2023/06/11 08:40:55;;;;;;;;;14.33;13.33;;;;;20.78;67.02;98652.44;4880010;28;102967;-83
2023/06/11 08:43:23;;;;;;;;;13.67;13.00;;;;;21.08;71.09;98638.00;4878394;28;103409;-84
2023/06/11 08:45:51;;;;;;;;;11.00;11.00;;;;;21.43;63.11;98651.13;4876507;28;101612;-86
2023/06/11 08:48:24;;;;;;;;;10.00;9.33;;;;;21.84;66.92;98641.06;4871450;28;102665;-85
2023/06/11 08:50:53;;;;;;;;;15.00;12.00;;;;;21.80;63.89;98651.75;4872476;28;101700;-81
2023/06/11 08:53:20;;;;;;;;;10.67;9.33;;;;;21.56;65.17;98636.84;4874857;28;107777;-87
2023/06/11 08:55:48;;;;;;;;;10.00;10.00;;;;;21.95;62.86;98642.75;4874550;28;101937;-82
2023/06/11 08:58:16;;;;;;;;;9.00;8.67;;;;;21.95;64.27;98645.50;4850008;28;101861;-87
2023/06/11 09:00:43;;;;;;;;;12.00;12.00;;;;;22.06;64.86;98649.94;4852933;28;104107;-86
2023/06/11 09:03:15;;;;;;;;;10.00;9.00;;;;;21.86;62.90;98645.19;4861707;28;106452;-90
2023/06/11 09:05:43;;;;;;;;;12.67;12.33;;;;;21.99;61.59;98639.16;4869574;28;101814;-86
2023/06/11 09:08:10;;;;;;;;;12.00;12.00;;;;;21.89;63.72;98647.38;4851881;28;104455;-84
2023/06/11 09:10:50;;;;;;;;;15.67;13.67;;;;;22.05;63.63;98643.59;4872655;28;101534;-89
2023/06/11 09:13:19;;;;;;;;;12.67;12.67;;;;;22.21;66.10;98633.38;4870877;28;103475;-91
2023/06/11 09:15:48;;;;;;;;;13.67;13.00;;;;;22.39;62.14;98643.03;4877725;28;101773;-91
2023/06/11 09:18:22;;;;;;;;;11.00;10.33;;;;;21.82;61.27;98633.06;4881199;28;101996;-85
2023/06/11 09:20:57;;;;;;;;;13.33;13.00;;;;;20.77;63.64;98642.53;4867938;28;102003;-90
2023/06/11 09:23:32;;;;;;;;;9.00;9.00;;;;;20.76;65.55;98640.84;4860116;28;108368;-92
2023/06/11 09:26:01;;;;;;;;;12.00;12.00;;;;;20.47;64.16;98638.50;4867266;28;101514;-87
2023/06/11 09:28:34;;;;;;;;;11.33;10.67;;;;;20.33;66.99;98637.28;4867178;28;101511;-88
2023/06/11 09:31:02;;;;;;;;;9.33;9.33;;;;;20.40;63.61;98631.56;4869223;28;101660;-87
2023/06/11 09:33:31;;;;;;;;;10.00;9.00;;;;;20.77;63.81;98637.03;4871860;28;103467;-94
2023/06/11 09:35:58;;;;;;;;;9.00;8.00;;;;;21.13;67.76;98638.91;4874630;28;101489;-92
2023/06/11 09:38:26;;;;;;;;;10.00;9.67;;;;;21.22;64.56;98633.69;4880228;28;101447;-90
2023/06/11 09:40:57;;;;;;;;;9.00;8.00;;;;;21.63;61.91;98631.91;4869616;28;103303;-82
2023/06/11 09:43:24;;;;;;;;;13.00;12.67;;;;;21.61;60.37;98631.38;4868792;28;103434;-90
2023/06/11 09:45:53;;;;;;;;;7.00;7.00;;;;;21.97;61.78;98622.09;4878012;28;101769;-88
2023/06/11 09:48:21;;;;;;;;;10.67;9.67;;;;;22.11;61.38;98633.41;4878183;28;101603;-91
2023/06/11 09:50:50;;;;;;;;;7.33;7.00;;;;;22.48;62.10;98628.41;4894511;28;101607;-94
2023/06/11 09:53:22;;;;;;;;;11.67;10.00;;;;;22.79;60.35;98633.91;4871251;28;103209;-93
2023/06/11 09:55:50;;;;;;;;;10.00;10.00;;;;;22.53;59.90;98627.59;4875926;28;101781;-96
2023/06/11 09:58:24;;;;;;;;;10.33;9.33;;;;;22.18;64.20;98639.47;4882141;28;101429;-93
2023/06/11 10:01:00;;;;;;;;;9.67;8.33;;;;;22.28;61.16;98633.13;4878189;28;101941;-92
2023/06/11 10:03:31;;;;;;;;;9.00;9.00;;;;;22.17;58.66;98635.88;4872285;28;108081;-91
2023/06/11 10:06:00;;;;;;;;;11.00;11.00;;;;;22.33;57.14;98639.47;4875519;28;101605;-89
2023/06/11 10:08:35;;;;;;;;;12.67;11.67;;;;;22.54;57.25;98634.75;4869790;28;101499;-84
2023/06/11 10:11:03;;;;;;;;;10.00;10.00;;;;;22.04;57.73;98650.19;4869253;28;101686;-85
2023/06/11 10:13:34;;;;;;;;;10.67;10.67;;;;;22.26;59.34;98622.38;4874240;28;103351;-83
2023/06/11 10:16:03;;;;;;;;;9.67;9.00;;;;;22.68;57.81;98641.34;4869337;28;103101;-85
2023/06/11 10:18:30;;;;;;;;;10.33;10.33;;;;;22.74;57.40;98639.44;4867277;28;101577;-84
2023/06/11 10:21:00;;;;;;;;;12.33;11.00;;;;;22.26;56.65;98649.91;4878443;28;101589;-86
2023/06/11 10:23:38;;;;;;;;;13.00;11.00;;;;;22.66;56.78;98638.03;4868677;28;104228;-86
2023/06/11 10:26:06;;;;;;;;;10.00;9.00;;;;;22.59;57.86;98649.34;4870984;28;101573;-86
2023/06/11 10:28:45;;;;;;;;;12.33;10.67;;;;;22.49;55.94;98640.25;4877240;28;101571;-86
2023/06/11 10:31:23;;;;;;;;;10.00;8.33;;;;;21.92;58.83;98630.31;4871289;28;106082;-90
2023/06/11 10:33:50;;;;;;;;;8.67;8.00;;;;;21.94;57.14;98647.41;4872046;28;107857;-83
2023/06/11 10:36:34;;;;;;;;;8.67;8.00;;;;;22.02;58.33;98648.81;4871822;28;101564;-85
2023/06/11 10:39:22;;;;;;;;;10.00;9.67;;;;;22.07;58.59;98652.38;4862445;28;103012;-84
2023/06/11 10:42:00;;;;;;;;;7.00;7.00;;;;;21.97;57.83;98646.06;4876987;28;101630;-86
2023/06/11 10:44:29;;;;;;;;;6.00;6.00;;;;;22.00;59.80;98640.81;4877258;28;108814;-84
2023/06/11 10:47:00;;;;;;;;;7.33;6.00;;;;;21.77;56.92;98638.56;4865286;28;102638;-86
2023/06/11 10:49:28;;;;;;;;;9.00;7.67;;;;;22.20;57.49;98640.00;4870686;28;101983;-83
2023/06/11 10:51:56;;;;;;;;;9.00;8.33;;;;;22.36;57.37;98605.00;4873961;28;102014;-83
2023/06/11 10:54:27;;;;;;;;;12.00;10.67;;;;;22.88;56.92;98640.50;4875577;28;103484;-85
2023/06/11 10:56:58;;;;;;;;;8.67;8.67;;;;;22.57;58.75;98628.69;4879870;28;101572;-79
2023/06/11 10:59:26;;;;;;;;;10.67;10.33;;;;;22.38;55.03;98638.63;4873079;28;101889;-82
2023/06/11 11:01:53;;;;;;;;;7.33;7.00;;;;;22.64;54.67;98630.06;4872324;28;101505;-84
2023/06/11 11:04:21;;;;;;;;;8.00;7.33;;;;;22.95;54.82;98630.84;4876375;28;108012;-84
2023/06/11 11:06:52;;;;;;;;;10.00;10.00;;;;;22.91;53.39;98618.72;4870526;28;101573;-84
2023/06/11 11:09:23;;;;;;;;;12.00;11.00;;;;;22.76;54.52;98638.06;4858869;28;101537;-88
2023/06/11 11:11:52;;;;;;;;;8.33;8.00;;;;;22.85;54.29;98619.84;4870819;28;101820;-85
2023/06/11 11:14:20;;;;;;;;;6.00;6.00;;;;;23.39;53.72;98627.34;4870788;28;107820;-86
2023/06/11 11:16:47;;;;;;;;;6.33;6.33;;;;;22.89;54.48;98629.19;4869427;28;102273;-83
2023/06/11 11:19:14;;;;;;;;;9.00;8.67;;;;;22.34;55.08;98609.97;4868247;28;101709;-86
2023/06/11 11:21:50;;;;;;;;;7.00;7.00;;;;;22.24;56.90;98591.53;4883321;28;101672;-85